Home / Local Weather & Traffic / California / Grapevine Past Weather

Grapevine, CA Past Weather

Last 30 Days

 
High: 35ºf @12:13 AM    Low: 34ºf @2:13 AM     Approx. Precipitation / Rain Total: 0 in.
Time (PST)Temp. (ºf)Humidity (%)Dew Point (ºf)Barometer (inHG)Wind Speed (mph)Wind DirectionWind Gust (mph)1hr. Precip / Rain Total (in.)Snow Depth
2:13 AM3410034-13.03wnw20.86--
1:13 AM3510035-13.03wnw22.59--
12:13 AM3510035-4.34wnw12.17--
High: 47ºf @1:13 PM    Low: 35ºf @2:13 PM     Approx. Precipitation / Rain Total: 0 in.
Time (PST)Temp. (ºf)Humidity (%)Dew Point (ºf)Barometer (inHG)Wind Speed (mph)Wind DirectionWind Gust (mph)1hr. Precip / Rain Total (in.)Snow Depth
11:13 PM3610036-6.95wnw15.64--
9:13 PM3610036-6.95w10.43--
8:13 PM3610036-5.21w10.43--
7:13 PM3610036-5.21w10.43--
6:13 PM3610036-6.08wsw16.51--
3:13 PM4010040-4.34sw13.9--
2:13 PM3510035-8.69sw21.72--
1:13 PM479044.22-6.95w13.03--
12:13 PM449241.83-8.69wnw12.17--
11:13 AM4110041-6.95wnw13.03--
10:13 AM439441.39-7.82wnw12.17--
9:13 AM4010040-6.95wnw9.56--
8:13 AM3910039-5.21wnw7.82--
7:13 AM3810038-6.08wnw7.82--
5:13 AM3910039-3.48wnw6.08--
4:13 AM3810038-1.74wnw6.95--
3:13 AM4010040-2.61wnw7.82--
2:13 AM4010040-4.34wnw7.82--
1:13 AM4110041-6.08wsw10.43--
12:13 AM4310043-2.61w8.69--
High: 50ºf @12:13 PM    Low: 44ºf @8:13 AM     Approx. Precipitation / Rain Total: 0 in.
Time (PST)Temp. (ºf)Humidity (%)Dew Point (ºf)Barometer (inHG)Wind Speed (mph)Wind DirectionWind Gust (mph)1hr. Precip / Rain Total (in.)Snow Depth
11:13 PM4410044-5.21nw12.17--
10:13 PM4710047-0.87wnw5.21--
9:13 PM489747.19-3.48wnw6.08--
8:13 PM489847.46-5.21wnw6.95--
7:13 PM4510045-4.34ne11.3--
5:13 PM4810048-8.69ne19.12--
2:13 PM4810048-13.9ene16.51--
12:13 PM509247.77-6.95ene14.77--
10:13 AM4610046-13.03e20.86--
8:13 AM4410044-15.64ene24.33--
7:13 AM497742.11-5.21e13.03--
6:13 AM4810048-7.82ese20.86--
5:13 AM468140.5-6.95ese13.9--
4:13 AM509448.34-12.17ese17.38--
3:13 AM459142.53-4.34ne7.82--
2:13 AM449943.74---4.34--
1:13 AM449843.47-3.48ne4.34--
12:13 AM459643.93-2.61nw5.21--
High: 60ºf @12:13 PM    Low: 45ºf @10:13 PM     Approx. Precipitation / Rain Total: 0 in.
Time (PST)Temp. (ºf)Humidity (%)Dew Point (ºf)Barometer (inHG)Wind Speed (mph)Wind DirectionWind Gust (mph)1hr. Precip / Rain Total (in.)Snow Depth
10:13 PM459443.38---8.69--
9:13 PM469544.65-3.48ene9.56--
8:13 PM479044.22-2.61ne5.21--
7:13 PM489045.21-3.48w5.21--
6:13 PM488844.62-4.34w7.82--
5:13 PM499246.78-6.95w11.3--
4:13 PM508545.67-7.82wsw11.3--
3:13 PM528647.94-6.95wsw13.03--
2:13 PM537946.66-7.82wsw12.17--
12:13 PM604337.44-11.3ene15.64--
11:13 AM554131.74-13.03ene20.86--
10:13 AM564736.06-14.77ene20.86--
9:13 AM534331.11-14.77ene18.25--
8:13 AM504630.04-13.9ene17.38--
6:13 AM473822.73-13.03ene19.99--
5:13 AM474325.68-13.03ene20.86--
4:13 AM494428.05-4.34ese28.68--
3:13 AM494729.66-10.43ese34.76--
2:13 AM504529.5-21.72e29.55--
1:13 AM504529.5-18.25e33.89--
12:13 AM495433.09-22.59e32.15--
High: 65ºf @1:13 PM    Low: 49ºf @11:13 PM     Approx. Precipitation / Rain Total: 0 in.
Time (PST)Temp. (ºf)Humidity (%)Dew Point (ºf)Barometer (inHG)Wind Speed (mph)Wind DirectionWind Gust (mph)1hr. Precip / Rain Total (in.)Snow Depth
11:13 PM496035.73-19.12e26.07--
8:13 PM553930.5-26.07e30.41--
7:13 PM553829.86-23.46e31.28--
5:13 PM613230.93-21.72e27.81--
3:13 PM632829.38-20.86e33.02--
2:13 PM652427.33-22.59e34.76--
1:13 PM652022.96-23.46e31.28--
12:13 PM642123.29-21.72e28.68--
10:13 AM632526.63-13.9ene19.99--
9:13 AM622626.73-6.95ene13.9--
7:13 AM543124.06-9.56ene14.77--
4:13 AM562419.73-8.69ne14.77--
3:13 AM543526.97-10.43ene15.64--
2:13 AM517844.38-4.34wsw6.95--
1:13 AM528046.02-2.61wsw6.95--
12:13 AM537444.94-4.34wsw7.82--
High: 67ºf @11:13 AM    Low: 54ºf @7:13 PM     Approx. Precipitation / Rain Total: 0 in.
Time (PST)Temp. (ºf)Humidity (%)Dew Point (ºf)Barometer (inHG)Wind Speed (mph)Wind DirectionWind Gust (mph)1hr. Precip / Rain Total (in.)Snow Depth
11:13 PM553124.93-4.34ne8.69--
10:13 PM572824.23-6.08ne12.17--
9:13 PM573730.99-6.95ne11.3--
8:13 PM554936.19-7.82ene11.3--
7:13 PM548649.91-3.48n6.08--
5:13 PM607150.57-3.48nnw9.56--
4:13 PM637053.06-5.21ese7.82--
3:13 PM617753.73-4.34wnw12.17--
2:13 PM607552.05-8.69w12.17--
1:13 PM627553.98-5.21wnw9.56--
11:13 AM672125.78-14.77ene18.25--
10:13 AM652427.33-11.3ene13.9--
9:13 AM622323.78-9.56ene13.9--
8:13 AM592119.13-6.95ene11.3--
7:13 AM581713.45-6.08ne13.03--
6:13 AM561711.82-10.43ne14.77--
4:13 AM581612.08-5.21ene14.77--
3:13 AM591815.57-10.43ene14.77--
2:13 AM592321.26-10.43ne14.77--
1:13 AM582925.93-8.69ene13.9--
12:13 AM583228.31-9.56ne13.03--
High: 68ºf @12:13 PM    Low: 51ºf @1:13 AM     Approx. Precipitation / Rain Total: 0 in.
Time (PST)Temp. (ºf)Humidity (%)Dew Point (ºf)Barometer (inHG)Wind Speed (mph)Wind DirectionWind Gust (mph)1hr. Precip / Rain Total (in.)Snow Depth
11:13 PM601917.63-6.08ne9.56--
10:13 PM591815.57-1.74nne4.34--
8:13 PM603733.65-5.21ene8.69--
6:13 PM623131.02-7.82ene13.03--
5:13 PM663336.07-10.43ene16.51--
4:13 PM673236.16-13.03ene18.25--
3:13 PM674041.87-13.03ene18.25--
1:13 PM674544.95-13.03ene18.25--
12:13 PM684042.77-14.77ene19.99--
11:13 AM673840.55-13.9ene17.38--
10:13 AM663537.56-12.17ene14.77--
9:13 AM663235.29-7.82ne10.43--
6:13 AM544231.43-3.48wsw5.21--
3:13 AM544633.69-6.08wsw7.82--
2:13 AM527142.89-6.95sw9.56--
1:13 AM514731.49-6.95sw8.69--
12:13 AM544935.28-6.08sw7.82--
High: 63ºf @11:13 AM    Low: 47ºf @6:13 AM     Approx. Precipitation / Rain Total: 0 in.
Time (PST)Temp. (ºf)Humidity (%)Dew Point (ºf)Barometer (inHG)Wind Speed (mph)Wind DirectionWind Gust (mph)1hr. Precip / Rain Total (in.)Snow Depth
10:13 PM563226.57-5.21wsw6.95--
9:13 PM573529.62-4.34wsw7.82--
8:13 PM546743.29-5.21sw7.82--
6:13 PM538849.54-4.34wsw6.95--
5:13 PM528748.25-6.08wsw10.43--
4:13 PM557246.14-6.95wsw8.69--
3:13 PM577047.31-6.95wsw8.69--
2:13 PM567648.54-7.82wsw9.56--
1:13 PM624138.03-5.21wsw9.56--
12:13 PM623332.57-7.82wsw10.43--
11:13 AM633534.92-6.08wsw8.69--
10:13 AM604639.16-6.08sw11.3--
9:13 AM585139.97-6.95sw11.3--
8:13 AM538648.92-5.21wsw10.43--
7:13 AM508445.36-6.08wsw8.69--
6:13 AM479645.92-5.21wsw9.56--
5:13 AM487741.14-6.08sw9.56--
4:13 AM486837.95-6.08sw9.56--
3:13 AM516539.65-5.21sw6.95--
1:13 AM525536.34-6.08wsw8.69--
12:13 AM526440.2-4.34wsw12.17--
High: 67ºf @12:13 PM    Low: 56ºf @9:13 PM     Approx. Precipitation / Rain Total: 0 in.
Time (PST)Temp. (ºf)Humidity (%)Dew Point (ºf)Barometer (inHG)Wind Speed (mph)Wind DirectionWind Gust (mph)1hr. Precip / Rain Total (in.)Snow Depth
9:13 PM565540.06-5.21wsw11.3--
8:13 PM585039.47-4.34wsw9.56--
3:13 PM663738.98-6.08wsw11.3--
2:13 PM663839.66-6.08wsw11.3--
1:13 PM664040.98-7.82wsw12.17--
12:13 PM673034.54-6.95wsw12.17--
11:13 AM663134.49-7.82wsw13.03--
10:13 AM663134.49-6.95wsw10.43--
9:13 AM653234.42-5.21wsw6.95--
8:13 AM633131.89-6.08wsw7.82--
6:13 AM603230.06-3.48wsw6.08--
4:13 AM613130.15-4.34wsw6.08--
2:13 AM622626.73-5.21wsw6.95--
1:13 AM622525.78-6.08wsw6.95--
12:13 AM622525.78-3.48wsw5.21--
High: 73ºf @1:13 PM    Low: 58ºf @6:13 AM     Approx. Precipitation / Rain Total: 0 in.
Time (PST)Temp. (ºf)Humidity (%)Dew Point (ºf)Barometer (inHG)Wind Speed (mph)Wind DirectionWind Gust (mph)1hr. Precip / Rain Total (in.)Snow Depth
11:13 PM622727.64-4.34wsw5.21--
10:13 PM632425.64-5.21wsw5.21--
8:13 PM622121.63-2.61sw6.95--
7:13 PM622626.73-4.34wsw8.69--
3:13 PM693237.91-5.21sw11.3--
2:13 PM703037.13-6.08ene18.25--
1:13 PM732029.55-12.17ene21.72--
11:13 AM702027.08-19.99ene26.07--
10:13 AM682126.61-19.99ene25.2--
9:13 AM672327.98-16.51ene19.99--
8:13 AM642022.13-15.64ene19.12--
7:13 AM612221.89-13.03ene17.38--
6:13 AM581915.99-11.3ene14.77--
5:13 AM61139.82-8.69ene10.43--
3:13 AM602018.82-2.61ne5.21--
12:13 AM652022.96-4.34e6.08--
High: 71ºf @12:13 PM    Low: 57ºf @4:13 AM     Approx. Precipitation / Rain Total: 0 in.
Time (PST)Temp. (ºf)Humidity (%)Dew Point (ºf)Barometer (inHG)Wind Speed (mph)Wind DirectionWind Gust (mph)1hr. Precip / Rain Total (in.)Snow Depth
9:13 PM642628.43-4.34ssw7.82--
4:13 PM694144.31-8.69ne12.17--
3:13 PM694144.31-7.82ne12.17--
12:13 PM712432.38-14.77ene23.46--
10:13 AM663134.49-14.77ene19.99--
9:13 AM653234.42-14.77ene19.99--
7:13 AM612625.87-14.77ene17.38--
6:13 AM612625.87-13.03ne14.77--
4:13 AM573126.67-2.61ne4.34--
1:13 AM604136.23-4.34wsw5.21--
12:13 AM604136.23-3.48wsw5.21--
High: 65ºf @12:13 PM    Low: 46ºf @6:13 AM     Approx. Precipitation / Rain Total: 0 in.
Time (PST)Temp. (ºf)Humidity (%)Dew Point (ºf)Barometer (inHG)Wind Speed (mph)Wind DirectionWind Gust (mph)1hr. Precip / Rain Total (in.)Snow Depth
11:13 PM584737.88-5.21ssw6.08--
7:13 PM5010050-1.74wsw6.08--
6:13 PM5110051-4.34nw8.69--
4:13 PM568651.87-6.08nw7.82--
3:13 PM588352.86-5.21nw7.82--
1:13 PM647355.17-5.21ene8.69--
12:13 PM656151.22-4.34ene6.95--
11:13 AM608655.8-4.34ene7.82--
9:13 AM538448.3-4.34nw9.56--
8:13 AM529149.45-4.34wnw7.82--
7:13 AM4710047-6.08wnw12.17--
6:13 AM4610046-8.69wnw10.43--
5:13 AM485432.16-6.08wnw9.56--
4:13 AM4610046-6.95wnw10.43--
3:13 AM476836.99-6.95wnw10.43--
2:13 AM505634.93-6.95wnw9.56--
1:13 AM4610046-6.08wnw8.69--
12:13 AM4710047-6.95wnw9.56--
High: 64ºf @12:13 PM    Low: 45ºf @1:13 AM     Approx. Precipitation / Rain Total: 0 in.
Time (PST)Temp. (ºf)Humidity (%)Dew Point (ºf)Barometer (inHG)Wind Speed (mph)Wind DirectionWind Gust (mph)1hr. Precip / Rain Total (in.)Snow Depth
11:13 PM4810048-7.82wnw9.56--
10:13 PM4810048-5.21wnw9.56--
9:13 PM489646.91-7.82wnw9.56--
8:13 PM499848.46-6.08wnw10.43--
7:13 PM4810048-6.95wnw9.56--
6:13 PM519048.17-6.08wnw9.56--
5:13 PM556342.64-4.34wnw8.69--
4:13 PM578151.23-4.34wnw7.82--
3:13 PM519950.73-6.08wnw12.17--
2:13 PM547546.26-8.69wnw11.3--
1:13 PM603733.65-7.82w9.56--
12:13 PM646250.71-4.34ene8.69--
7:13 AM543627.66-6.08w7.82--
6:13 AM505634.93-6.95w9.56--
5:13 AM467638.87-8.69w10.43--
4:13 AM496537.75-8.69w10.43--
3:13 AM515334.48-6.95w8.69--
2:13 AM479946.73-5.21w9.56--
1:13 AM4510045-6.95w10.43--
12:13 AM486135.2-7.82w10.43--
High: 64ºf @11:13 AM    Low: 52ºf @11:13 PM     Approx. Precipitation / Rain Total: 0 in.
Time (PST)Temp. (ºf)Humidity (%)Dew Point (ºf)Barometer (inHG)Wind Speed (mph)Wind DirectionWind Gust (mph)1hr. Precip / Rain Total (in.)Snow Depth
11:13 PM524229.63-3.48w7.82--
10:13 PM543325.55-6.08w7.82--
9:13 PM535336.33-6.08w7.82--
8:13 PM544734.23-5.21w7.82--
7:13 PM535537.27-5.21w7.82--
6:13 PM527243.26-6.08w7.82--
5:13 PM555740.05-5.21w7.82--
4:13 PM568150.25-5.21w7.82--
3:13 PM567347.47-4.34w7.82--
2:13 PM584335.63-5.21w8.69--
1:13 PM614237.74-5.21w8.69--
12:13 PM623030.21-6.08w9.56--
11:13 AM642729.35-5.21wnw7.82--
10:13 AM643031.94-5.21wnw7.82--
9:13 AM633031.08-4.34w6.08--
8:13 AM593329.94-2.61w6.08--
7:13 AM573428.91-4.34w6.95--
6:13 AM563629.43-5.21w6.08--
5:13 AM563428.03-4.34w6.95--
4:13 AM563428.03-6.08w7.82--
3:13 AM563528.74-5.21w6.08--
2:13 AM563629.43-4.34w6.95--
1:13 AM544633.69-6.95w9.56--
12:13 AM564836.59-5.21w8.69--
High: 65ºf @2:13 PM    Low: 43ºf @4:13 AM     Approx. Precipitation / Rain Total: 0 in.
Time (PST)Temp. (ºf)Humidity (%)Dew Point (ºf)Barometer (inHG)Wind Speed (mph)Wind DirectionWind Gust (mph)1hr. Precip / Rain Total (in.)Snow Depth
11:13 PM526641-6.95w9.56--
10:13 PM507943.75-6.08w10.43--
9:13 PM526038.55-6.08w9.56--
8:13 PM554735.14-6.08wnw9.56--
7:13 PM537946.66-5.21nw6.95--
6:13 PM488543.71---4.34--
5:13 PM605443.3-3.48ne8.69--
4:13 PM624741.54-7.82ne10.43--
3:13 PM634943.53-6.08nne13.9--
2:13 PM653435.94-12.17ene21.72--
1:13 PM653032.81-15.64ene20.86--
12:13 PM633836.99-13.03ene18.25--
11:13 AM623534.03-12.17ene15.64--
10:13 AM623534.03-12.17ene14.77--
9:13 AM603431.55-10.43ne13.03--
8:13 AM583731.88-7.82ene9.56--
7:13 AM533928.71-3.48ne6.95--
6:13 AM543728.32-6.08ne7.82--
5:13 AM494729.66---3.48--
4:13 AM438037.26-2.61nne8.69--
3:13 AM523525.21-2.61ssw4.34--
2:13 AM533123.19-2.61sw6.95--
1:13 AM533123.19-4.34wsw5.21--
12:13 AM485331.69-2.61sw6.08--
High: 56ºf @9:13 AM    Low: 44ºf @4:13 AM     Approx. Precipitation / Rain Total: 0 in.
Time (PST)Temp. (ºf)Humidity (%)Dew Point (ºf)Barometer (inHG)Wind Speed (mph)Wind DirectionWind Gust (mph)1hr. Precip / Rain Total (in.)Snow Depth
11:13 PM523525.21---4.34--
10:13 PM533425.39-4.34ssw6.08--
9:13 PM533626.77-5.21wsw7.82--
8:13 PM505233.07-6.08sw7.82--
6:13 PM477338.8-3.48wsw8.69--
5:13 PM497842.44-6.08wsw8.69--
4:13 PM548047.97-1.74ese5.21--
3:13 PM537745.98-3.48ene6.08--
2:13 PM546140.86-4.34ne9.56--
1:13 PM545940-6.08ene9.56--
12:13 PM564434.4-7.82ene10.43--
11:13 AM544432.58-7.82ene11.3--
10:13 AM536139.91-6.08ene8.69--
9:13 AM564635.51-3.48e6.08--
8:13 AM504227.82-6.08wnw7.82--
7:13 AM492817.33-5.21wnw7.82--
6:13 AM482715.63-6.08wnw9.56--
5:13 AM444423.5-6.95wnw8.69--
4:13 AM443719.42-5.21wnw9.56--
3:13 AM473520.78-6.95wnw9.56--
2:13 AM453820.94-6.08wnw10.43--
1:13 AM444423.5-5.21wnw9.56--
12:13 AM473923.34-5.21wnw9.56--
High: 51ºf @1:13 PM    Low: 31ºf @1:13 AM     Approx. Precipitation / Rain Total: 0 in.
Time (PST)Temp. (ºf)Humidity (%)Dew Point (ºf)Barometer (inHG)Wind Speed (mph)Wind DirectionWind Gust (mph)1hr. Precip / Rain Total (in.)Snow Depth
11:13 PM474023.94-6.08wnw9.56--
10:13 PM397832.73-6.95wnw10.43--
9:13 PM387229.79-7.82wnw10.43--
8:13 PM473822.73-6.08wnw8.69--
7:13 PM473923.34-6.08wnw10.43--
6:13 PM464123.63-6.95wnw10.43--
5:13 PM474828.34-6.95wnw11.3--
4:13 PM495834.87-6.08wnw10.43--
3:13 PM494025.74-5.21wnw8.69--
1:13 PM516640.05-3.48ese6.08--
12:13 PM506036.67-3.48e6.08--
11:13 AM514228.72-4.34e6.95--
10:13 AM493824.51-6.08e8.69--
9:13 AM473923.34-5.21ene8.69--
8:13 AM493522.55-3.48nnw6.08--
7:13 AM385121.5-4.34wnw8.69--
6:13 AM365521.42-6.95wnw9.56--
5:13 AM346724.21-6.95wnw8.69--
4:13 AM327224.01-6.95wnw10.43--
3:13 AM337024.3-10.43wnw11.3--
2:13 AM327324.34-9.56wnw13.03--
1:13 AM317423.7-10.43wnw13.03--
12:13 AM325919.32-6.95wnw10.43--
High: 35ºf @4:13 PM    Low: 24ºf @6:13 AM     Approx. Precipitation / Rain Total: 0 in.
Time (PST)Temp. (ºf)Humidity (%)Dew Point (ºf)Barometer (inHG)Wind Speed (mph)Wind DirectionWind Gust (mph)1hr. Precip / Rain Total (in.)Snow Depth
11:13 PM316319.9-6.95wnw10.43--
10:13 PM308325.48-7.82wnw10.43--
9:13 PM307623.37-6.08wnw9.56--
8:13 PM307021.42-7.82wnw12.17--
7:13 PM308024.59-6.95wnw11.3--
6:13 PM308024.59-7.82wnw11.3--
5:13 PM337525.96-7.82wnw13.03--
4:13 PM357327.24-6.95wnw14.77--
3:13 PM358129.77-8.69wnw14.77--
2:13 PM348931.11-9.56wnw14.77--
1:13 PM359633.98-6.95wnw15.64--
12:13 PM329831.5-7.82wnw13.03--
11:13 AM319930.75-6.95wnw11.3--
10:13 AM309929.75-4.34wnw6.95--
9:13 AM289927.76-4.34wnw7.82--
8:13 AM2610026-4.34wnw7.82--
7:13 AM2510025-5.21wnw8.69--
6:13 AM2410024-6.08wnw10.43--
5:13 AM2510025-7.82wnw10.43--
4:13 AM2610026-6.95wnw11.3--
3:13 AM2610026-7.82wnw13.03--
2:13 AM2710027-8.69wnw13.9--
1:13 AM2710027-9.56wnw16.51--
12:13 AM2710027-8.69wnw13.03--
High: 41ºf @9:13 AM    Low: 28ºf @11:13 PM     Approx. Precipitation / Rain Total: 0 in.
Time (PST)Temp. (ºf)Humidity (%)Dew Point (ºf)Barometer (inHG)Wind Speed (mph)Wind DirectionWind Gust (mph)1hr. Precip / Rain Total (in.)Snow Depth
11:13 PM2810028-6.08w15.64--
10:13 PM2810028-8.69wnw13.9--
8:13 PM306519.68-6.08w14.77--
7:13 PM315215.46-6.08wsw14.77--
6:13 PM316420.27-5.21wnw15.64--
5:13 PM347928.18-8.69wnw13.9--
4:13 PM378432.62-6.95w16.51--
3:13 PM3610036-8.69wnw16.51--
2:13 PM3410034-8.69wnw18.25--
1:13 PM3710037-8.69wnw13.03--
12:13 PM389436.43-5.21wnw9.56--
11:13 AM379836.49-6.95wnw10.43--
10:13 AM407131.37-4.34ne9.56--
9:13 AM417031.98-10.43ene14.77--
8:13 AM415827.37-5.21ene12.17--
7:13 AM348730.55-8.69e13.9--
6:13 AM349532.72-1.74ne6.08--
5:13 AM369033.36-3.48wnw5.21--
4:13 AM375120.57-2.61nw6.08--
3:13 AM384116.42-2.61n6.08--
2:13 AM403413.92-2.61ese15.64--
1:13 AM394016.75-11.3e16.51--
12:13 AM404721.42-6.95ene13.03--
High: 56ºf @11:13 AM    Low: 41ºf @9:13 PM     Approx. Precipitation / Rain Total: 0 in.
Time (PST)Temp. (ºf)Humidity (%)Dew Point (ºf)Barometer (inHG)Wind Speed (mph)Wind DirectionWind Gust (mph)1hr. Precip / Rain Total (in.)Snow Depth
11:13 PM414822.83-2.61nnw6.95--
10:13 PM425125.2-2.61nw10.43--
9:13 PM416228.99-9.56e15.64--
8:13 PM425527.02-8.69ene13.9--
7:13 PM445026.57-9.56e12.17--
6:13 PM455027.49-8.69ene13.9--
5:13 PM485833.94-8.69ene12.17--
4:13 PM515434.95-2.61sw9.56--
3:13 PM534532.23-4.34wsw10.43--
2:13 PM533526.09-7.82wsw12.17--
12:13 PM543124.06-6.95wsw9.56--
11:13 AM562520.69-5.21ne12.17--
10:13 AM532719.93-6.95ene10.43--
9:13 AM512617.34-6.08ene9.56--
8:13 AM49209.7-6.95ene9.56--
7:13 AM47219.12-6.08e9.56--
6:13 AM452410.41-4.34e6.95--
5:13 AM45239.46-4.34e8.69--
4:13 AM46229.31-6.08ene9.56--
3:13 AM482412.95-3.48ene6.08--
2:13 AM482513.88-1.74e6.08--
1:13 AM502515.58-3.48wnw7.82--
12:13 AM502414.65-3.48wnw7.82--
High: 59ºf @4:13 PM    Low: 45ºf @5:13 AM     Approx. Precipitation / Rain Total: 0 in.
Time (PST)Temp. (ºf)Humidity (%)Dew Point (ºf)Barometer (inHG)Wind Speed (mph)Wind DirectionWind Gust (mph)1hr. Precip / Rain Total (in.)Snow Depth
11:13 PM502212.67-6.08e21.72--
10:13 PM512718.21-14.77e17.38--
9:13 PM492716.49---4.34--
8:13 PM522315.37-3.48ssw6.08--
7:13 PM53179.38-4.34sw7.82--
6:13 PM53179.38-4.34sw7.82--
5:13 PM571712.64-4.34sw7.82--
4:13 PM592220.22-4.34ese9.56--
3:13 PM582522.39-6.95e11.3--
2:13 PM583026.75-9.56ene20.86--
1:13 PM581915.99-13.9ene21.72--
12:13 PM572117.47-17.38ene31.28--
11:13 AM542114.96-25.2e37.37--
10:13 AM522214.35-27.81e38.23--
9:13 AM512213.51-26.07ene33.89--
8:13 AM482412.95-18.25ene23.46--
7:13 AM452511.32-19.12ene27.81--
6:13 AM45239.46-20.86ne23.46--
5:13 AM45217.45-16.51ne19.12--
4:13 AM46207.21-15.64ne18.25--
3:13 AM47196.91-14.77ne19.12--
2:13 AM47196.91-14.77ne17.38--
1:13 AM47208.04-12.17ne14.77--
12:13 AM48219.95-10.43nne13.9--
High: 55ºf @3:13 PM    Low: 40ºf @6:13 AM     Approx. Precipitation / Rain Total: 0 in.
Time (PST)Temp. (ºf)Humidity (%)Dew Point (ºf)Barometer (inHG)Wind Speed (mph)Wind DirectionWind Gust (mph)1hr. Precip / Rain Total (in.)Snow Depth
11:13 PM482412.95-8.69ne11.3--
10:13 PM482513.88-6.95ne9.56--
9:13 PM492817.33-8.69nne12.17--
8:13 PM492817.33-8.69ne10.43--
7:13 PM493119.7-9.56ne13.03--
6:13 PM493321.16-11.3ne15.64--
5:13 PM523122.31-11.3ne18.25--
4:13 PM533022.41-13.9ene21.72--
3:13 PM552519.84-15.64ene24.33--
2:13 PM532921.61-14.77ene23.46--
1:13 PM542922.47-16.51ene26.07--
12:13 PM522920.74-19.12ene25.2--
11:13 AM493018.93-19.99ene25.2--
10:13 AM492918.15-18.25ene27.81--
9:13 AM482513.88-19.99ne29.55--
8:13 AM443115.33-13.9ne21.72--
7:13 AM413112.71-16.51ne20.86--
6:13 AM403111.83-17.38ne23.46--
4:13 AM403011.1-16.51ne20.86--
High: 49ºf @1:13 PM    Low: 36ºf @6:13 AM     Approx. Precipitation / Rain Total: 0 in.
Time (PST)Temp. (ºf)Humidity (%)Dew Point (ºf)Barometer (inHG)Wind Speed (mph)Wind DirectionWind Gust (mph)1hr. Precip / Rain Total (in.)Snow Depth
10:13 PM423113.58-13.9ne17.38--
9:13 PM443115.33-13.9ne16.51--
8:13 PM443417.46-10.43ne14.77--
7:13 PM443719.42-11.3ne15.64--
6:13 PM444423.5-13.9ne17.38--
5:13 PM475029.34-10.43ne15.64--
4:13 PM474928.84-10.43ene17.38--
3:13 PM494327.49-11.3ene19.99--
2:13 PM493925.13-13.9ene22.59--
1:13 PM493723.87-14.77ene26.07--
12:13 PM474124.53-16.51ene23.46--
11:13 AM454323.86-17.38ene23.46--
10:13 AM444423.5-16.51ene21.72--
9:13 AM434824.67-15.64ene22.59--
8:13 AM405826.43-14.77ne18.25--
7:13 AM375723.2-13.03ne15.64--
6:13 AM365923.08-11.3ne13.9--
High: 31ºf @6:13 PM    Low: 31ºf @6:13 PM     Approx. Precipitation / Rain Total: 0 in.
Time (PST)Temp. (ºf)Humidity (%)Dew Point (ºf)Barometer (inHG)Wind Speed (mph)Wind DirectionWind Gust (mph)1hr. Precip / Rain Total (in.)Snow Depth
10:13 PM319028.42-4.34w8.69--
8:13 PM319128.69-6.08w10.43--
6:13 PM319128.69-5.21w8.69--
High: 32ºf @7:13 AM    Low: 31ºf @4:13 AM     Approx. Precipitation / Rain Total: 0 in.
Time (PST)Temp. (ºf)Humidity (%)Dew Point (ºf)Barometer (inHG)Wind Speed (mph)Wind DirectionWind Gust (mph)1hr. Precip / Rain Total (in.)Snow Depth
10:13 PM3210032-7.82w12.17--
9:13 PM3110031-5.21w9.56--
8:13 PM3110031-6.95w10.43--
7:13 PM3110031-6.08w7.82--
3:13 PM3210032-5.21w8.69--
2:13 PM3210032-4.34w8.69--
1:13 PM3210032-4.34w6.95--
12:13 PM3210032-5.21w8.69--
10:13 AM3210032-4.34w8.69--
8:13 AM3210032-4.34w6.95--
7:13 AM3210032-4.34w6.95--
6:13 AM3210032-4.34w6.95--
5:13 AM3210032-2.61w4.34--
4:13 AM3110031---6.08--
3:13 AM3110031-5.21w6.95--
2:13 AM3110031-2.61w6.95--
1:13 AM3210032---6.08--
12:13 AM3210032-4.34ne7.82--
High: 35ºf @7:13 PM    Low: 32ºf @11:13 PM     Approx. Precipitation / Rain Total: 0 in.
Time (PST)Temp. (ºf)Humidity (%)Dew Point (ºf)Barometer (inHG)Wind Speed (mph)Wind DirectionWind Gust (mph)1hr. Precip / Rain Total (in.)Snow Depth
11:13 PM3210032-4.34ne6.95--
10:13 PM3310033-4.34ne7.82--
9:13 PM3410034-4.34ne7.82--
8:13 PM3510035-2.61e6.08--
7:13 PM3510035-3.48w5.21--
6:13 PM3510035-4.34se6.08--
Past Weather Disclaimer Note regarding "Approx. Precipitation / Rain Total"

Grapevine CA Past Weather Nearby

More Local Information

Bookmark and Share

Grapevine weather and traffic updates by locals

Write your own Grapevine, California report, forecast, or traffic update:

Please note by clicking on "Post" you acknowledge that you have read the Terms of Service and the Grapevine, CA report and/or forecast you are posting is in compliance with such terms. Be respectful. An inappropriate Grapevine, CA report and/or forecast will be removed by a moderator.